createdAt,value
2018-01-26T00:00:53.215Z,0.00
2018-01-26T00:01:53.211Z,0.00
2018-01-26T00:02:53.206Z,0.00
2018-01-26T00:03:53.204Z,0.00
2018-01-26T00:04:53.199Z,0.00
2018-01-26T00:05:53.194Z,0.00
2018-01-26T00:06:53.192Z,0.00
2018-01-26T00:08:01.198Z,0.00
2018-01-26T00:08:53.185Z,0.00
2018-01-26T00:09:53.180Z,0.00
2018-01-26T00:10:53.175Z,0.00
2018-01-26T00:11:53.170Z,0.00
2018-01-26T00:12:53.167Z,0.00
2018-01-26T00:13:53.162Z,0.00
2018-01-26T00:14:53.159Z,0.00
2018-01-26T00:15:53.155Z,0.00
2018-01-26T00:16:53.151Z,0.00
2018-01-26T00:17:53.146Z,0.00
2018-01-26T00:18:53.141Z,0.00
2018-01-26T00:19:53.139Z,0.00
2018-01-26T00:20:53.136Z,0.00
2018-01-26T00:21:53.131Z,0.00
2018-01-26T00:22:53.126Z,0.00
2018-01-26T00:23:53.124Z,0.00
2018-01-26T00:24:53.119Z,0.00
2018-01-26T00:25:53.116Z,0.00
2018-01-26T00:26:53.111Z,0.00
2018-01-26T00:27:53.108Z,0.00
2018-01-26T00:28:53.104Z,0.00
2018-01-26T00:29:53.098Z,0.00
2018-01-26T00:30:53.094Z,0.00
2018-01-26T00:31:53.089Z,0.00
2018-01-26T00:32:53.088Z,0.00
2018-01-26T00:33:53.083Z,0.00
2018-01-26T00:34:53.081Z,0.00
2018-01-26T00:35:53.078Z,0.00
2018-01-26T00:36:53.073Z,0.00
2018-01-26T00:37:53.067Z,0.00
2018-01-26T00:38:53.064Z,0.00
2018-01-26T00:39:53.060Z,0.00
2018-01-26T00:40:53.057Z,0.00
2018-01-26T00:41:53.052Z,0.00
2018-01-26T00:42:53.048Z,0.00
2018-01-26T00:43:53.044Z,0.00
2018-01-26T00:44:53.041Z,0.00
2018-01-26T00:45:53.037Z,0.00
2018-01-26T00:46:53.033Z,0.00
2018-01-26T00:47:53.028Z,0.00
2018-01-26T00:48:53.025Z,0.00
2018-01-26T00:49:53.020Z,0.00
2018-01-26T00:50:53.016Z,0.00
2018-01-26T00:51:53.014Z,0.00
2018-01-26T00:52:53.008Z,0.00
2018-01-26T00:53:53.008Z,0.00
2018-01-26T00:54:53.002Z,0.00
2018-01-26T00:55:52.996Z,0.00
2018-01-26T00:56:52.994Z,0.00
2018-01-26T00:57:52.988Z,0.00
2018-01-26T00:58:52.985Z,0.00
2018-01-26T00:59:52.983Z,0.00
2018-01-26T01:00:52.979Z,0.00
2018-01-26T01:01:52.973Z,0.00
2018-01-26T01:02:52.970Z,0.00
2018-01-26T01:03:52.966Z,0.00
2018-01-26T01:04:52.964Z,0.00
2018-01-26T01:05:52.958Z,0.00
2018-01-26T01:06:52.954Z,0.00
2018-01-26T01:07:52.954Z,0.00
2018-01-26T01:08:52.947Z,0.00
2018-01-26T01:09:52.943Z,0.00
2018-01-26T01:10:52.955Z,0.00
2018-01-26T01:11:52.936Z,0.00
2018-01-26T01:12:52.932Z,0.00
2018-01-26T01:13:52.927Z,0.00
2018-01-26T01:14:52.923Z,0.00
2018-01-26T01:15:52.921Z,0.00
2018-01-26T01:16:52.919Z,0.00
2018-01-26T01:17:52.912Z,0.00
2018-01-26T01:18:52.908Z,0.00
2018-01-26T01:19:52.905Z,0.00
2018-01-26T01:20:52.902Z,0.00
2018-01-26T01:21:52.896Z,0.00
2018-01-26T01:22:52.892Z,0.00
2018-01-26T01:23:52.890Z,0.00
2018-01-26T01:24:52.885Z,0.00
2018-01-26T01:25:52.880Z,0.00
2018-01-26T01:26:52.879Z,0.00
2018-01-26T01:27:52.878Z,0.00
2018-01-26T01:28:52.872Z,0.00
2018-01-26T01:29:52.869Z,0.00
2018-01-26T01:30:52.862Z,0.00
2018-01-26T01:31:52.858Z,0.00
2018-01-26T01:32:52.855Z,0.00
2018-01-26T01:33:52.854Z,0.00
2018-01-26T01:34:52.847Z,0.00
2018-01-26T01:35:52.848Z,0.00
2018-01-26T01:36:52.839Z,0.00
2018-01-26T01:37:52.834Z,0.00
2018-01-26T01:38:52.832Z,0.00
2018-01-26T01:39:52.828Z,0.00
2018-01-26T01:40:52.824Z,0.00
2018-01-26T01:41:52.820Z,0.00
2018-01-26T01:42:52.815Z,0.00
2018-01-26T01:43:52.811Z,0.00
2018-01-26T01:44:52.809Z,0.00
2018-01-26T01:45:52.806Z,0.00
2018-01-26T01:46:52.802Z,0.00
2018-01-26T01:47:52.797Z,0.00
2018-01-26T01:48:52.794Z,0.00
2018-01-26T01:49:52.790Z,0.00
2018-01-26T01:50:52.785Z,0.00
2018-01-26T01:51:52.782Z,0.00
2018-01-26T01:52:52.778Z,0.00
2018-01-26T01:53:52.778Z,0.00
2018-01-26T01:54:52.771Z,0.00
2018-01-26T01:55:52.767Z,0.00
2018-01-26T01:56:52.762Z,0.00
2018-01-26T01:57:52.759Z,0.00
2018-01-26T01:58:52.756Z,0.00
2018-01-26T01:59:52.750Z,0.00
2018-01-26T02:00:52.747Z,0.00
2018-01-26T02:01:52.741Z,0.00
2018-01-26T02:02:52.739Z,0.00
2018-01-26T02:03:52.735Z,0.00
2018-01-26T02:04:52.731Z,0.00
2018-01-26T02:05:52.726Z,0.00
2018-01-26T02:06:52.723Z,0.00
2018-01-26T02:07:52.719Z,0.00
2018-01-26T02:08:52.715Z,0.00
2018-01-26T02:09:52.710Z,0.00
2018-01-26T02:10:52.707Z,0.00
2018-01-26T02:11:52.703Z,0.00
2018-01-26T02:12:52.699Z,0.00
2018-01-26T02:13:52.700Z,0.00
2018-01-26T02:14:52.695Z,0.00
2018-01-26T02:15:52.688Z,0.00
2018-01-26T02:16:52.683Z,0.00
2018-01-26T02:17:52.678Z,0.00
2018-01-26T02:18:52.674Z,0.00
2018-01-26T02:19:52.670Z,0.00
2018-01-26T02:20:52.667Z,0.00
2018-01-26T02:21:52.664Z,0.00
2018-01-26T02:22:52.657Z,0.00
2018-01-26T02:23:52.654Z,0.00
2018-01-26T02:24:52.651Z,0.00
2018-01-26T02:25:52.645Z,0.00
2018-01-26T02:26:52.641Z,0.00
2018-01-26T02:27:52.638Z,0.00
2018-01-26T02:28:52.634Z,0.00
2018-01-26T02:29:52.630Z,0.00
2018-01-26T02:30:52.625Z,0.00
2018-01-26T02:31:52.622Z,0.00
2018-01-26T02:32:52.618Z,0.00
2018-01-26T02:33:52.614Z,0.00
2018-01-26T02:34:52.609Z,0.00
2018-01-26T02:35:52.606Z,0.00
2018-01-26T02:36:52.603Z,0.00
2018-01-26T02:37:52.598Z,0.00
2018-01-26T02:38:52.592Z,0.00
2018-01-26T02:39:52.588Z,0.00
2018-01-26T02:40:52.585Z,0.00
2018-01-26T02:41:52.580Z,0.00
2018-01-26T02:42:52.577Z,0.00
2018-01-26T02:43:52.573Z,0.00
2018-01-26T02:44:52.569Z,0.00
2018-01-26T02:45:52.564Z,0.00
2018-01-26T02:46:52.561Z,0.00
2018-01-26T02:47:52.557Z,0.00
2018-01-26T02:48:52.554Z,0.00
2018-01-26T02:49:52.550Z,0.00
2018-01-26T02:50:52.545Z,0.00
2018-01-26T02:51:52.542Z,0.00
2018-01-26T02:52:52.537Z,0.00
2018-01-26T02:53:52.533Z,0.00
2018-01-26T02:54:52.529Z,0.00
2018-01-26T02:55:52.525Z,0.00
2018-01-26T02:56:52.521Z,0.00
2018-01-26T02:57:52.517Z,0.00
2018-01-26T02:58:52.512Z,0.00
2018-01-26T02:59:52.512Z,0.00
2018-01-26T03:00:52.506Z,0.00
2018-01-26T03:01:52.501Z,0.00
2018-01-26T03:02:52.505Z,0.00
2018-01-26T03:03:52.493Z,0.00
2018-01-26T03:04:52.490Z,0.00
2018-01-26T03:05:52.485Z,0.00
2018-01-26T03:06:52.481Z,0.00
2018-01-26T03:07:52.479Z,0.00
2018-01-26T03:08:52.474Z,0.00
2018-01-26T03:09:52.469Z,0.00
2018-01-26T03:10:52.466Z,0.00
2018-01-26T03:11:52.463Z,0.00
2018-01-26T03:12:52.460Z,0.00
2018-01-26T03:13:52.454Z,0.00
2018-01-26T03:14:52.450Z,0.00
2018-01-26T03:15:52.447Z,0.00
2018-01-26T03:16:52.443Z,0.00
2018-01-26T03:17:52.444Z,0.00
2018-01-26T03:18:52.436Z,0.00
2018-01-26T03:19:52.431Z,0.00
2018-01-26T03:20:52.429Z,0.00
2018-01-26T03:21:52.423Z,0.00
2018-01-26T03:22:52.420Z,0.00
2018-01-26T03:23:52.415Z,0.00
2018-01-26T03:24:52.413Z,0.00
2018-01-26T03:25:52.408Z,0.00
2018-01-26T03:26:52.404Z,0.00
2018-01-26T03:27:52.400Z,0.00
2018-01-26T03:28:52.397Z,0.00
2018-01-26T03:29:52.393Z,0.00
2018-01-26T03:30:52.389Z,0.00
2018-01-26T03:31:52.385Z,0.00
2018-01-26T03:32:52.381Z,0.00
2018-01-26T03:33:52.377Z,0.00
2018-01-26T03:34:52.374Z,0.00
2018-01-26T03:35:52.370Z,0.00
2018-01-26T03:36:52.368Z,0.00
2018-01-26T03:37:52.362Z,0.00
2018-01-26T03:38:52.359Z,0.00
2018-01-26T03:39:52.356Z,0.00
2018-01-26T03:40:52.396Z,0.00
2018-01-26T03:41:52.349Z,0.00
2018-01-26T03:42:52.343Z,0.00
2018-01-26T03:43:52.340Z,0.00
2018-01-26T03:44:52.336Z,0.00
2018-01-26T03:45:52.331Z,0.00
2018-01-26T03:46:52.327Z,0.00
2018-01-26T03:47:52.326Z,0.00
2018-01-26T03:48:52.322Z,0.00
2018-01-26T03:49:52.316Z,0.00
2018-01-26T03:50:52.313Z,0.00
2018-01-26T03:51:52.308Z,0.00
2018-01-26T03:52:52.305Z,0.00
2018-01-26T03:53:52.300Z,0.00
2018-01-26T03:54:52.298Z,0.00
2018-01-26T03:55:52.293Z,0.00
2018-01-26T03:56:52.290Z,0.00
2018-01-26T03:57:52.286Z,0.00
2018-01-26T03:58:52.282Z,0.00
2018-01-26T03:59:52.279Z,0.00
2018-01-26T04:00:52.275Z,0.00
2018-01-26T04:01:52.271Z,0.00
2018-01-26T04:02:52.267Z,0.00
2018-01-26T04:03:52.263Z,0.00
2018-01-26T04:04:52.260Z,0.00
2018-01-26T04:05:52.255Z,0.00
2018-01-26T04:06:52.252Z,0.00
2018-01-26T04:07:52.249Z,0.00
2018-01-26T04:08:52.247Z,0.00
2018-01-26T04:09:52.239Z,0.00
2018-01-26T04:10:52.236Z,0.00
2018-01-26T04:11:52.235Z,0.00
2018-01-26T04:12:52.230Z,0.00
2018-01-26T04:13:52.225Z,0.00
2018-01-26T04:14:52.221Z,0.00
2018-01-26T04:15:52.218Z,0.00
2018-01-26T04:16:52.214Z,0.00
2018-01-26T04:17:52.210Z,0.00
2018-01-26T04:18:52.206Z,0.00
2018-01-26T04:19:52.204Z,0.00
2018-01-26T04:20:52.199Z,0.00
2018-01-26T04:21:52.194Z,0.00
2018-01-26T04:22:52.191Z,0.00
2018-01-26T04:23:52.189Z,0.00
2018-01-26T04:24:52.184Z,0.00
2018-01-26T04:25:52.179Z,0.00
2018-01-26T04:26:52.176Z,0.00
2018-01-26T04:27:52.172Z,0.00
2018-01-26T04:28:52.170Z,0.00
2018-01-26T04:29:52.164Z,0.00
2018-01-26T04:30:52.161Z,0.00
2018-01-26T04:31:52.158Z,0.00
2018-01-26T04:32:52.159Z,0.00
2018-01-26T04:33:52.150Z,0.00
2018-01-26T04:34:52.146Z,0.00
2018-01-26T04:35:52.142Z,0.00
2018-01-26T04:36:52.138Z,0.00
2018-01-26T04:37:52.134Z,0.00
2018-01-26T04:38:52.130Z,0.00
2018-01-26T04:39:52.126Z,0.00
2018-01-26T04:40:52.126Z,0.00
2018-01-26T04:41:52.121Z,0.00
2018-01-26T04:42:52.115Z,0.00
2018-01-26T04:43:52.111Z,0.00
2018-01-26T04:44:52.108Z,0.00
2018-01-26T04:45:52.103Z,0.00
2018-01-26T04:46:52.101Z,0.00
2018-01-26T04:47:52.099Z,0.00
2018-01-26T04:48:52.093Z,0.00
2018-01-26T04:49:52.088Z,0.00
2018-01-26T04:50:52.087Z,0.00
2018-01-26T04:51:52.080Z,0.00
2018-01-26T04:52:52.081Z,0.00
2018-01-26T04:53:52.074Z,0.00
2018-01-26T04:54:52.069Z,0.00
2018-01-26T04:55:52.065Z,0.00
2018-01-26T04:56:52.062Z,0.00
2018-01-26T04:57:52.058Z,0.00
2018-01-26T04:58:52.054Z,0.00
2018-01-26T04:59:52.051Z,0.00
2018-01-26T05:00:52.047Z,0.00
2018-01-26T05:01:52.042Z,0.00
2018-01-26T05:02:52.038Z,0.00
2018-01-26T05:03:52.037Z,0.00
2018-01-26T05:04:52.031Z,0.00
2018-01-26T05:05:52.027Z,0.00
2018-01-26T05:06:52.023Z,0.00
2018-01-26T05:07:52.019Z,0.00
2018-01-26T05:08:52.016Z,0.00
2018-01-26T05:09:52.011Z,0.00
2018-01-26T05:10:52.009Z,0.00
2018-01-26T05:11:52.004Z,0.00
2018-01-26T05:12:52.001Z,0.00
2018-01-26T05:13:51.998Z,0.00
2018-01-26T05:14:51.993Z,0.00
2018-01-26T05:15:51.989Z,0.00
2018-01-26T05:16:51.986Z,0.00
2018-01-26T05:17:51.980Z,0.00
2018-01-26T05:18:51.977Z,0.00
2018-01-26T05:19:51.973Z,0.00
2018-01-26T05:20:51.971Z,0.00
2018-01-26T05:21:51.965Z,0.00
2018-01-26T05:22:51.970Z,0.00
2018-01-26T05:23:51.959Z,0.00
2018-01-26T05:24:51.954Z,0.00
2018-01-26T05:25:51.950Z,0.00
2018-01-26T05:26:51.947Z,0.00
2018-01-26T05:27:51.943Z,0.00
2018-01-26T05:28:51.940Z,0.00
2018-01-26T05:29:51.935Z,0.00
2018-01-26T05:30:51.930Z,0.00
2018-01-26T05:31:51.926Z,0.00
2018-01-26T05:32:51.924Z,0.00
2018-01-26T05:33:51.919Z,0.00
2018-01-26T05:34:51.915Z,0.00
2018-01-26T05:35:51.911Z,0.00
2018-01-26T05:36:51.909Z,0.00
2018-01-26T05:37:51.903Z,0.00
2018-01-26T05:38:51.899Z,0.00
2018-01-26T05:39:51.896Z,0.00
2018-01-26T05:40:51.892Z,0.00
2018-01-26T05:41:51.887Z,0.00
2018-01-26T05:42:51.883Z,0.00
2018-01-26T05:43:51.880Z,0.00
2018-01-26T05:44:51.877Z,0.00
2018-01-26T05:45:51.872Z,0.00
2018-01-26T05:46:51.870Z,0.00
2018-01-26T05:47:51.864Z,0.00
2018-01-26T05:48:51.861Z,0.00
2018-01-26T05:49:51.858Z,0.00
2018-01-26T05:50:51.852Z,0.00
2018-01-26T05:51:51.848Z,0.00
2018-01-26T05:52:51.846Z,0.00
2018-01-26T05:53:51.841Z,0.00
2018-01-26T05:54:51.835Z,0.00
2018-01-26T05:55:51.832Z,0.00
2018-01-26T05:56:51.830Z,0.00
2018-01-26T05:57:51.824Z,0.00
2018-01-26T05:58:51.820Z,0.00
2018-01-26T05:59:51.817Z,0.00
2018-01-26T06:00:51.813Z,0.00
2018-01-26T06:01:51.808Z,0.00
2018-01-26T06:02:51.804Z,0.00
2018-01-26T06:03:51.801Z,0.00
2018-01-26T06:04:51.797Z,0.00
2018-01-26T06:05:51.792Z,0.00
2018-01-26T06:06:51.789Z,0.00
2018-01-26T06:07:51.786Z,0.00
2018-01-26T06:08:51.780Z,0.00
2018-01-26T06:09:51.776Z,0.00
2018-01-26T06:10:51.772Z,0.00
2018-01-26T06:11:51.770Z,0.00
2018-01-26T06:12:51.766Z,0.00
2018-01-26T06:13:51.761Z,0.00
2018-01-26T06:14:51.756Z,0.00
2018-01-26T06:15:51.753Z,0.00
2018-01-26T06:16:51.750Z,0.00
2018-01-26T06:17:51.746Z,0.00
2018-01-26T06:18:51.740Z,0.00
2018-01-26T06:19:51.738Z,0.00
2018-01-26T06:20:51.732Z,0.00
2018-01-26T06:21:51.728Z,0.00
2018-01-26T06:22:51.725Z,0.00
2018-01-26T06:23:51.721Z,0.00
2018-01-26T06:24:51.717Z,0.00
2018-01-26T06:25:51.712Z,0.00
2018-01-26T06:26:51.709Z,0.00
2018-01-26T06:27:51.705Z,0.00
2018-01-26T06:28:51.704Z,0.00
2018-01-26T06:29:51.698Z,0.00
2018-01-26T06:30:51.694Z,0.00
2018-01-26T06:31:51.688Z,0.00
2018-01-26T06:32:51.685Z,0.00
2018-01-26T06:33:51.680Z,0.00
2018-01-26T06:34:51.676Z,0.00
2018-01-26T06:35:51.673Z,0.00
2018-01-26T06:36:51.670Z,0.00
2018-01-26T06:37:51.664Z,0.00
2018-01-26T06:38:51.662Z,0.00
2018-01-26T06:39:51.657Z,0.00
2018-01-26T06:40:51.654Z,0.00
2018-01-26T06:41:51.649Z,0.00
2018-01-26T06:42:51.646Z,0.00
2018-01-26T06:43:51.641Z,0.00
2018-01-26T06:44:51.637Z,0.00
2018-01-26T06:45:51.632Z,0.00
2018-01-26T06:46:51.629Z,0.00
2018-01-26T06:47:51.625Z,0.00
2018-01-26T06:48:51.622Z,0.00
2018-01-26T06:49:51.618Z,0.00
2018-01-26T06:50:51.613Z,0.00
2018-01-26T06:51:51.609Z,0.00
2018-01-26T06:52:51.607Z,0.00
2018-01-26T06:53:51.600Z,0.00
2018-01-26T06:54:51.599Z,4.00
2018-01-26T06:55:51.594Z,4.00
2018-01-26T06:56:51.591Z,4.00
2018-01-26T06:57:51.585Z,4.00
2018-01-26T06:58:51.582Z,4.00
2018-01-26T06:59:51.578Z,4.00
2018-01-26T07:00:51.573Z,8.00
2018-01-26T07:01:51.570Z,4.00
2018-01-26T07:02:51.565Z,8.00
2018-01-26T07:03:51.560Z,4.00
2018-01-26T07:04:51.558Z,8.00
2018-01-26T07:05:51.553Z,12.00
2018-01-26T07:06:51.551Z,12.00
2018-01-26T07:07:51.548Z,12.00
2018-01-26T07:08:51.541Z,12.00
2018-01-26T07:09:51.537Z,16.00
2018-01-26T07:10:51.532Z,16.00
2018-01-26T07:11:51.529Z,20.00
2018-01-26T07:12:51.526Z,16.00
2018-01-26T07:13:51.523Z,20.00
2018-01-26T07:14:51.517Z,20.00
2018-01-26T07:15:51.514Z,24.00
2018-01-26T07:16:51.511Z,32.00
2018-01-26T07:17:51.505Z,36.00
2018-01-26T07:18:51.501Z,36.00
2018-01-26T07:19:51.499Z,40.00
2018-01-26T07:20:51.495Z,44.00
2018-01-26T07:21:51.489Z,48.00
2018-01-26T07:22:51.486Z,52.00
2018-01-26T07:23:51.481Z,60.00
2018-01-26T07:24:51.480Z,64.00
2018-01-26T07:25:51.475Z,60.00
2018-01-26T07:26:51.470Z,68.00
2018-01-26T07:27:51.466Z,72.00
2018-01-26T07:28:51.462Z,76.00
2018-01-26T07:29:51.457Z,84.00
2018-01-26T07:30:51.499Z,96.00
2018-01-26T07:31:51.450Z,104.00
2018-01-26T07:32:51.447Z,112.00
2018-01-26T07:33:51.441Z,116.00
2018-01-26T07:34:51.437Z,128.00
2018-01-26T07:35:51.434Z,140.00
2018-01-26T07:36:51.430Z,156.00
2018-01-26T07:37:51.425Z,160.00
2018-01-26T07:38:51.421Z,172.00
2018-01-26T07:39:51.417Z,180.00
2018-01-26T07:40:51.414Z,188.00
2018-01-26T07:41:51.408Z,184.00
2018-01-26T07:42:51.405Z,188.00
2018-01-26T07:43:51.401Z,180.00
2018-01-26T07:44:51.398Z,176.00
2018-01-26T07:45:51.393Z,180.00
2018-01-26T07:46:51.390Z,188.00
2018-01-26T07:47:51.387Z,200.00
2018-01-26T07:48:51.380Z,216.00
2018-01-26T07:49:51.378Z,232.00
2018-01-26T07:50:51.374Z,244.00
2018-01-26T07:51:51.370Z,252.00
2018-01-26T07:52:51.366Z,272.00
2018-01-26T07:53:51.361Z,300.00
2018-01-26T07:54:51.356Z,328.00
2018-01-26T07:55:51.352Z,332.00
2018-01-26T07:56:51.349Z,320.00
2018-01-26T07:57:51.346Z,320.00
2018-01-26T07:58:51.341Z,316.00
2018-01-26T07:59:51.336Z,312.00
2018-01-26T08:00:51.333Z,312.00
2018-01-26T08:01:51.328Z,324.00
2018-01-26T08:02:51.325Z,324.00
2018-01-26T08:03:51.322Z,328.00
2018-01-26T08:04:51.317Z,352.00
2018-01-26T08:05:51.313Z,376.00
2018-01-26T08:06:51.308Z,384.00
2018-01-26T08:07:51.305Z,396.00
2018-01-26T08:08:51.300Z,412.00
2018-01-26T08:09:51.295Z,416.00
2018-01-26T08:10:51.292Z,424.00
2018-01-26T08:11:51.290Z,424.00
2018-01-26T08:12:51.285Z,436.00
2018-01-26T08:13:51.311Z,444.00
2018-01-26T08:14:51.276Z,460.00
2018-01-26T08:15:51.272Z,464.00
2018-01-26T08:16:51.269Z,464.00
2018-01-26T08:17:51.265Z,464.00
2018-01-26T08:18:51.261Z,476.00
2018-01-26T08:19:51.258Z,500.00
2018-01-26T08:20:51.252Z,508.00
2018-01-26T08:21:51.249Z,524.00
2018-01-26T08:22:51.245Z,528.00
2018-01-26T08:23:51.240Z,560.00
2018-01-26T08:24:51.237Z,580.00
2018-01-26T08:25:51.233Z,604.00
2018-01-26T08:26:51.229Z,612.00
2018-01-26T08:27:51.224Z,652.00
2018-01-26T08:28:51.221Z,684.00
2018-01-26T08:29:51.217Z,740.00
2018-01-26T08:30:51.212Z,740.00
2018-01-26T08:31:51.210Z,736.00
2018-01-26T08:32:51.205Z,736.00
2018-01-26T08:33:51.200Z,736.00
2018-01-26T08:34:51.197Z,728.00
2018-01-26T08:35:51.194Z,720.00
2018-01-26T08:36:51.189Z,704.00
2018-01-26T08:37:51.184Z,684.00
2018-01-26T08:38:51.180Z,684.00
2018-01-26T08:39:51.176Z,688.00
2018-01-26T08:40:51.173Z,708.00
2018-01-26T08:41:51.170Z,716.00
2018-01-26T08:42:51.164Z,700.00
2018-01-26T08:43:51.162Z,700.00
2018-01-26T08:44:51.158Z,720.00
2018-01-26T08:45:51.153Z,740.00
2018-01-26T08:46:51.148Z,792.00
2018-01-26T08:47:51.146Z,836.00
2018-01-26T08:48:51.145Z,892.00
2018-01-26T08:49:51.137Z,888.00
2018-01-26T08:50:51.133Z,924.00
2018-01-26T08:51:51.132Z,1000.00
2018-01-26T08:52:51.128Z,1148.00
2018-01-26T08:53:51.122Z,1176.00
2018-01-26T08:54:51.119Z,1176.00
2018-01-26T08:55:51.115Z,1188.00
2018-01-26T08:56:51.111Z,1148.00
2018-01-26T08:57:51.107Z,1116.00
2018-01-26T08:58:51.105Z,1100.00
2018-01-26T08:59:51.101Z,1060.00
2018-01-26T09:00:51.100Z,1052.00
2018-01-26T09:01:51.093Z,1052.00
2018-01-26T09:02:51.087Z,1084.00
2018-01-26T09:03:51.084Z,1068.00
2018-01-26T09:04:51.082Z,1100.00
2018-01-26T09:05:51.077Z,1076.00
2018-01-26T09:06:51.073Z,1052.00
2018-01-26T09:07:51.070Z,1072.00
2018-01-26T09:08:51.066Z,1092.00
2018-01-26T09:09:51.062Z,1112.00
2018-01-26T09:10:51.059Z,1156.00
2018-01-26T09:11:51.056Z,1204.00
2018-01-26T09:12:51.051Z,1312.00
2018-01-26T09:13:51.047Z,1424.00
2018-01-26T09:14:51.045Z,1412.00
2018-01-26T09:15:51.040Z,1472.00
2018-01-26T09:16:51.037Z,1588.00
2018-01-26T09:17:51.032Z,1656.00
2018-01-26T09:18:51.029Z,1684.00
2018-01-26T09:19:51.025Z,1672.00
2018-01-26T09:20:51.022Z,1656.00
2018-01-26T09:21:51.020Z,1572.00
2018-01-26T09:22:51.014Z,1640.00
2018-01-26T09:23:51.011Z,1752.00
2018-01-26T09:24:51.007Z,1736.00
2018-01-26T09:25:51.002Z,1804.00
2018-01-26T09:26:51.008Z,1780.00
2018-01-26T09:27:50.995Z,1736.00
2018-01-26T09:28:50.995Z,1804.00
2018-01-26T09:29:50.988Z,1800.00
2018-01-26T09:30:50.988Z,1808.00
2018-01-26T09:31:50.981Z,1828.00
2018-01-26T09:32:50.978Z,1940.00
2018-01-26T09:33:50.974Z,1952.00
2018-01-26T09:34:50.972Z,1996.00
2018-01-26T09:35:50.967Z,2144.00
2018-01-26T09:36:50.963Z,2188.00
2018-01-26T09:37:50.958Z,2176.00
2018-01-26T09:38:50.956Z,2108.00
2018-01-26T09:39:50.953Z,2084.00
2018-01-26T09:40:50.950Z,2132.00
2018-01-26T09:41:50.945Z,2172.00
2018-01-26T09:42:50.994Z,2148.00
2018-01-26T09:43:50.938Z,2040.00
2018-01-26T09:44:50.941Z,2024.00
2018-01-26T09:45:50.932Z,2156.00
2018-01-26T09:46:50.927Z,2276.00
2018-01-26T09:47:50.924Z,2428.00
2018-01-26T09:48:50.922Z,2348.00
2018-01-26T09:49:50.918Z,2204.00
2018-01-26T09:50:50.914Z,2124.00
2018-01-26T09:51:50.910Z,2136.00
2018-01-26T09:52:50.907Z,2132.00
2018-01-26T09:53:50.903Z,2184.00
2018-01-26T09:54:50.901Z,2304.00
2018-01-26T09:55:50.897Z,2360.00
2018-01-26T09:56:50.893Z,2356.00
2018-01-26T09:57:50.889Z,2352.00
2018-01-26T09:58:50.887Z,2328.00
2018-01-26T09:59:50.883Z,2376.00
2018-01-26T10:00:50.881Z,2460.00
2018-01-26T10:01:50.876Z,2396.00
2018-01-26T10:02:50.871Z,2296.00
2018-01-26T10:03:50.871Z,2284.00
2018-01-26T10:04:50.867Z,2200.00
2018-01-26T10:05:50.862Z,2092.00
2018-01-26T10:06:50.860Z,2064.00
2018-01-26T10:07:50.857Z,2064.00
2018-01-26T10:08:50.853Z,2124.00
2018-01-26T10:09:50.849Z,2224.00
2018-01-26T10:10:50.847Z,2352.00
2018-01-26T10:11:50.844Z,2436.00
2018-01-26T10:12:50.839Z,2496.00
2018-01-26T10:13:50.837Z,2496.00
2018-01-26T10:14:50.836Z,2480.00
2018-01-26T10:15:50.830Z,2520.00
2018-01-26T10:16:50.827Z,2628.00
2018-01-26T10:17:50.823Z,2688.00
2018-01-26T10:18:50.819Z,2640.00
2018-01-26T10:19:50.818Z,2560.00
2018-01-26T10:20:50.817Z,2460.00
2018-01-26T10:21:50.809Z,2448.00
2018-01-26T10:22:50.807Z,2516.00
2018-01-26T10:23:50.803Z,2404.00
2018-01-26T10:24:50.802Z,2248.00
2018-01-26T10:25:50.798Z,2148.00
2018-01-26T10:26:50.793Z,2176.00
2018-01-26T10:27:50.790Z,2232.00
2018-01-26T10:28:50.789Z,2300.00
2018-01-26T10:29:50.785Z,2292.00
2018-01-26T10:30:50.783Z,2228.00
2018-01-26T10:31:50.777Z,2196.00
2018-01-26T10:32:50.778Z,2256.00
2018-01-26T10:33:50.771Z,2352.00
2018-01-26T10:34:50.768Z,2304.00
2018-01-26T10:35:50.766Z,2228.00
2018-01-26T10:36:50.761Z,2212.00
2018-01-26T10:37:50.758Z,2232.00
2018-01-26T10:38:50.756Z,2076.00
2018-01-26T10:39:50.753Z,1988.00
2018-01-26T10:40:50.750Z,2088.00
2018-01-26T10:41:50.747Z,2144.00
2018-01-26T10:42:50.742Z,2016.00
2018-01-26T10:43:50.740Z,2096.00
2018-01-26T10:44:50.736Z,2248.00
2018-01-26T10:45:50.732Z,2432.00
2018-01-26T10:46:50.729Z,2344.00
2018-01-26T10:47:50.726Z,2324.00
2018-01-26T10:48:50.739Z,2436.00
2018-01-26T10:49:50.720Z,2316.00
2018-01-26T10:50:50.717Z,2268.00
2018-01-26T10:51:50.713Z,2368.00
2018-01-26T10:52:50.711Z,2364.00
2018-01-26T10:53:50.706Z,2240.00
2018-01-26T10:54:50.705Z,2108.00
2018-01-26T10:55:50.701Z,1980.00
2018-01-26T10:56:50.697Z,1916.00
2018-01-26T10:57:50.701Z,1804.00
2018-01-26T10:58:50.692Z,1724.00
2018-01-26T10:59:50.688Z,1804.00
2018-01-26T11:00:50.686Z,1972.00
2018-01-26T11:01:50.680Z,2168.00
2018-01-26T11:02:50.678Z,2344.00
2018-01-26T11:03:50.675Z,2272.00
2018-01-26T11:04:50.673Z,2132.00
2018-01-26T11:05:50.668Z,2088.00
2018-01-26T11:06:50.663Z,2116.00
2018-01-26T11:07:50.661Z,2136.00
2018-01-26T11:08:50.676Z,1972.00
2018-01-26T11:09:50.655Z,2096.00
2018-01-26T11:10:50.652Z,2332.00
2018-01-26T11:11:50.648Z,2408.00
2018-01-26T11:12:50.646Z,2396.00
2018-01-26T11:13:50.643Z,2392.00
2018-01-26T11:14:50.638Z,2448.00
2018-01-26T11:15:50.635Z,2528.00
2018-01-26T11:16:50.633Z,2772.00
2018-01-26T11:17:50.628Z,2700.00
2018-01-26T11:18:50.626Z,2420.00
2018-01-26T11:19:50.623Z,2172.00
2018-01-26T11:20:50.620Z,2128.00
2018-01-26T11:21:50.616Z,2192.00
2018-01-26T11:22:50.612Z,2104.00
2018-01-26T11:23:50.611Z,1856.00
2018-01-26T11:24:50.610Z,1704.00
2018-01-26T11:25:50.604Z,1888.00
2018-01-26T11:26:50.601Z,2444.00
2018-01-26T11:27:50.597Z,3140.00
2018-01-26T11:28:50.597Z,3864.00
2018-01-26T11:29:50.589Z,4184.00
2018-01-26T11:30:50.588Z,4124.00
2018-01-26T11:31:50.585Z,3824.00
2018-01-26T11:32:50.583Z,3340.00
2018-01-26T11:33:50.578Z,2912.00
2018-01-26T11:34:50.574Z,2676.00
2018-01-26T11:35:50.572Z,2612.00
2018-01-26T11:36:50.570Z,2520.00
2018-01-26T11:37:50.569Z,2360.00
2018-01-26T11:38:50.563Z,2084.00
2018-01-26T11:39:50.559Z,2076.00
2018-01-26T11:40:50.556Z,2240.00
2018-01-26T11:41:50.555Z,2092.00
2018-01-26T11:42:50.550Z,2056.00
2018-01-26T11:43:50.548Z,2728.00
2018-01-26T11:44:50.543Z,3140.00
2018-01-26T11:45:50.541Z,3140.00
2018-01-26T11:46:50.539Z,2796.00
2018-01-26T11:47:50.536Z,2368.00
2018-01-26T11:48:50.535Z,1996.00
2018-01-26T11:49:50.528Z,1668.00
2018-01-26T11:50:50.527Z,1360.00
2018-01-26T11:51:50.525Z,1084.00
2018-01-26T11:52:50.522Z,872.00
2018-01-26T11:53:50.518Z,812.00
2018-01-26T11:54:50.515Z,884.00
2018-01-26T11:55:50.521Z,1324.00
2018-01-26T11:56:50.508Z,1768.00
2018-01-26T11:57:50.505Z,1860.00
2018-01-26T11:58:50.502Z,1700.00
2018-01-26T11:59:50.500Z,1868.00
2018-01-26T12:00:50.498Z,2284.00
2018-01-26T12:01:50.493Z,2752.00
2018-01-26T12:02:50.490Z,2800.00
2018-01-26T12:03:50.488Z,2720.00
2018-01-26T12:04:50.485Z,2456.00
2018-01-26T12:05:50.481Z,2328.00
2018-01-26T12:06:50.479Z,2376.00
2018-01-26T12:07:50.476Z,2444.00
2018-01-26T12:08:50.474Z,2456.00
2018-01-26T12:09:50.470Z,2504.00
2018-01-26T12:10:50.467Z,2540.00
2018-01-26T12:11:50.464Z,2612.00
2018-01-26T12:12:50.461Z,2604.00
2018-01-26T12:13:50.457Z,2420.00
2018-01-26T12:14:50.455Z,2308.00
2018-01-26T12:15:50.452Z,2284.00
2018-01-26T12:16:50.449Z,2288.00
2018-01-26T12:17:50.445Z,2224.00
2018-01-26T12:18:50.444Z,2240.00
2018-01-26T12:19:50.443Z,2312.00
2018-01-26T12:20:50.437Z,2460.00
2018-01-26T12:21:50.433Z,2668.00
2018-01-26T12:22:50.434Z,2888.00
2018-01-26T12:23:50.428Z,3100.00
2018-01-26T12:24:50.426Z,3144.00
2018-01-26T12:25:50.421Z,3188.00
2018-01-26T12:26:50.420Z,3212.00
2018-01-26T12:27:50.417Z,3156.00
2018-01-26T12:28:50.413Z,3080.00
2018-01-26T12:29:50.409Z,3036.00
2018-01-26T12:30:50.407Z,3116.00
2018-01-26T12:31:50.406Z,3232.00
2018-01-26T12:32:50.403Z,3444.00
2018-01-26T12:33:50.398Z,3716.00
2018-01-26T12:34:50.395Z,3972.00
2018-01-26T12:35:50.392Z,4120.00
2018-01-26T12:36:50.391Z,4368.00
2018-01-26T12:37:50.387Z,4608.00
2018-01-26T12:38:50.385Z,4868.00
2018-01-26T12:39:50.381Z,4900.00
2018-01-26T12:40:50.384Z,4896.00
2018-01-26T12:41:50.376Z,4908.00
2018-01-26T12:42:50.373Z,5004.00
2018-01-26T12:43:50.372Z,4820.00
2018-01-26T12:44:50.368Z,4624.00
2018-01-26T12:45:50.366Z,4476.00
2018-01-26T12:46:50.369Z,4396.00
2018-01-26T12:47:50.360Z,4284.00
2018-01-26T12:48:50.357Z,4216.00